createdAt,value
2023-05-23T00:00:26.961Z,66.60
2023-05-23T00:02:53.540Z,66.70
2023-05-23T00:05:20.114Z,66.60
2023-05-23T00:07:46.669Z,66.70
2023-05-23T00:10:13.188Z,66.60
2023-05-23T00:12:39.770Z,66.90
2023-05-23T00:15:06.318Z,66.70
2023-05-23T00:17:32.898Z,67.10
2023-05-23T00:19:59.465Z,66.70
2023-05-23T00:22:26.004Z,68.00
2023-05-23T00:24:52.539Z,67.10
2023-05-23T00:27:19.068Z,67.00
2023-05-23T00:29:45.608Z,66.80
2023-05-23T00:32:12.159Z,68.00
2023-05-23T00:34:38.677Z,66.50
2023-05-23T00:37:05.222Z,67.00
2023-05-23T00:39:31.725Z,66.70
2023-05-23T00:41:58.259Z,66.80
2023-05-23T00:44:27.308Z,66.20
2023-05-23T00:46:53.911Z,67.50
2023-05-23T00:49:21.309Z,67.90
2023-05-23T00:51:47.841Z,66.20
2023-05-23T00:54:14.365Z,67.10
2023-05-23T00:56:40.890Z,67.20
2023-05-23T00:59:07.419Z,66.90
2023-05-23T01:01:34.002Z,66.70
2023-05-23T01:04:03.469Z,67.00
2023-05-23T01:06:30.025Z,66.60
2023-05-23T01:08:56.573Z,67.10
2023-05-23T01:11:23.112Z,67.50
2023-05-23T01:13:49.660Z,67.70
2023-05-23T01:16:16.214Z,66.70
2023-05-23T01:18:42.753Z,67.30
2023-05-23T01:21:09.317Z,66.70
2023-05-23T01:23:35.861Z,66.80
2023-05-23T01:26:02.369Z,66.80
2023-05-23T01:28:33.385Z,66.90
2023-05-23T01:30:59.897Z,67.30
2023-05-23T01:33:26.420Z,67.40
2023-05-23T01:35:52.948Z,67.10
2023-05-23T01:38:19.505Z,67.20
2023-05-23T01:40:46.021Z,67.20
2023-05-23T01:43:12.556Z,66.90
2023-05-23T01:45:39.217Z,66.70
2023-05-23T01:48:06.062Z,66.90
2023-05-23T01:50:32.639Z,66.30
2023-05-23T01:52:59.194Z,66.60
2023-05-23T01:55:25.738Z,66.70
2023-05-23T01:57:52.268Z,67.10
2023-05-23T02:00:18.868Z,66.50
2023-05-23T02:02:45.430Z,66.20
2023-05-23T02:05:12.004Z,67.30
2023-05-23T02:07:38.535Z,66.80
2023-05-23T02:10:05.106Z,67.30
2023-05-23T02:12:31.636Z,66.50
2023-05-23T02:14:58.171Z,66.30
2023-05-23T02:17:24.730Z,66.60
2023-05-23T02:19:51.256Z,66.50
2023-05-23T02:22:17.763Z,67.10
2023-05-23T02:24:44.301Z,67.50
2023-05-23T02:27:10.811Z,66.60
2023-05-23T02:29:37.363Z,66.60
2023-05-23T02:32:03.900Z,66.40
2023-05-23T02:34:30.445Z,66.40
2023-05-23T02:36:56.984Z,65.60
2023-05-23T02:39:23.513Z,66.40
2023-05-23T02:41:50.027Z,66.30
2023-05-23T02:44:16.578Z,66.30
2023-05-23T02:46:45.453Z,66.60
2023-05-23T02:49:11.993Z,66.00
2023-05-23T02:51:38.529Z,66.80
2023-05-23T02:54:05.069Z,66.40
2023-05-23T02:56:31.616Z,66.70
2023-05-23T02:58:58.146Z,66.00
2023-05-23T03:01:24.721Z,67.00
2023-05-23T03:03:51.384Z,67.20
2023-05-23T03:06:18.099Z,65.90
2023-05-23T03:08:44.756Z,66.30
2023-05-23T03:14:02.089Z,66.50
2023-05-23T03:16:28.840Z,66.30
2023-05-23T03:18:55.588Z,66.30
2023-05-23T03:21:27.597Z,66.20
2023-05-23T03:23:54.238Z,66.10
2023-05-23T03:26:20.887Z,65.30
2023-05-23T03:28:51.780Z,66.40
2023-05-23T03:31:18.465Z,65.70
2023-05-23T03:33:45.135Z,66.60
2023-05-23T03:36:11.799Z,65.80
2023-05-23T03:38:38.458Z,66.10
2023-05-23T03:41:05.137Z,66.10
2023-05-23T03:43:31.819Z,66.80
2023-05-23T03:45:58.494Z,65.70
2023-05-23T03:48:25.204Z,66.40
2023-05-23T03:50:51.853Z,65.90
2023-05-23T03:53:18.532Z,65.80
2023-05-23T03:55:45.184Z,65.70
2023-05-23T03:58:11.855Z,66.00
2023-05-23T04:00:38.502Z,66.20
2023-05-23T04:03:05.452Z,65.10
2023-05-23T04:05:32.235Z,65.90
2023-05-23T04:07:58.915Z,65.60
2023-05-23T04:10:25.576Z,66.50
2023-05-23T04:12:52.226Z,66.00
2023-05-23T04:15:18.872Z,65.70
2023-05-23T04:17:45.622Z,65.60
2023-05-23T04:20:12.281Z,65.70
2023-05-23T04:22:38.849Z,64.70
2023-05-23T04:25:05.533Z,65.40
2023-05-23T04:27:32.094Z,66.10
2023-05-23T04:30:03.683Z,65.40
2023-05-23T04:32:30.234Z,65.40
2023-05-23T04:34:56.846Z,65.30
2023-05-23T04:37:23.510Z,65.50
2023-05-23T04:39:50.022Z,64.80
2023-05-23T04:42:16.542Z,65.80
2023-05-23T04:44:43.061Z,65.60
2023-05-23T04:47:09.716Z,65.30
2023-05-23T04:49:36.366Z,65.30
2023-05-23T04:52:03.555Z,64.80
2023-05-23T04:54:30.096Z,64.80
2023-05-23T04:56:56.634Z,65.60
2023-05-23T04:59:23.167Z,65.50
2023-05-23T05:01:49.695Z,64.90
2023-05-23T05:04:16.336Z,65.50
2023-05-23T05:06:42.873Z,64.50
2023-05-23T05:09:09.414Z,64.60
2023-05-23T05:11:35.944Z,65.20
2023-05-23T05:14:02.490Z,64.60
2023-05-23T05:16:29.050Z,64.80
2023-05-23T05:18:55.622Z,64.70
2023-05-23T05:21:22.181Z,65.20
2023-05-23T05:23:48.708Z,64.70
2023-05-23T05:26:15.217Z,64.80
2023-05-23T05:28:41.746Z,65.20
2023-05-23T05:31:09.571Z,64.70
2023-05-23T05:33:36.324Z,65.40
2023-05-23T05:36:02.991Z,65.00
2023-05-23T05:38:29.522Z,64.50
2023-05-23T05:40:56.059Z,64.50
2023-05-23T05:43:22.674Z,65.40
2023-05-23T05:45:49.240Z,64.70
2023-05-23T05:48:15.776Z,65.10
2023-05-23T05:50:42.540Z,65.40
2023-05-23T05:53:09.229Z,64.40
2023-05-23T05:55:35.755Z,65.30
2023-05-23T05:58:02.257Z,64.50
2023-05-23T06:00:28.790Z,64.40
2023-05-23T06:02:55.442Z,64.00
2023-05-23T06:05:22.207Z,64.60
2023-05-23T06:07:48.737Z,64.40
2023-05-23T06:10:15.275Z,64.20
2023-05-23T06:12:41.808Z,64.80
2023-05-23T06:15:08.330Z,64.60
2023-05-23T06:17:34.876Z,65.00
2023-05-23T06:20:01.437Z,64.60
2023-05-23T06:22:28.095Z,64.60
2023-05-23T06:24:54.616Z,64.00
2023-05-23T06:27:21.135Z,64.60
2023-05-23T06:29:47.659Z,63.80
2023-05-23T06:32:14.188Z,64.30
2023-05-23T06:34:40.742Z,64.10
2023-05-23T06:37:07.273Z,64.40
2023-05-23T06:39:33.785Z,63.90
2023-05-23T06:42:00.326Z,65.10
2023-05-23T06:44:26.884Z,64.70
2023-05-23T06:46:53.463Z,64.10
2023-05-23T06:49:19.987Z,64.20
2023-05-23T06:51:51.681Z,64.20
2023-05-23T06:54:18.288Z,64.20
2023-05-23T06:56:44.836Z,63.70
2023-05-23T06:59:11.357Z,64.50
2023-05-23T07:01:37.929Z,64.30
2023-05-23T07:04:04.558Z,64.60
2023-05-23T07:06:31.125Z,64.90
2023-05-23T07:08:57.671Z,64.50
2023-05-23T07:11:24.209Z,64.00
2023-05-23T07:13:50.723Z,64.50
2023-05-23T07:16:17.316Z,64.10
2023-05-23T07:18:43.846Z,63.70
2023-05-23T07:21:10.537Z,64.30
2023-05-23T07:23:37.035Z,63.80
2023-05-23T07:26:03.615Z,63.60
2023-05-23T07:28:30.217Z,64.30
2023-05-23T07:30:56.945Z,64.50
2023-05-23T07:33:23.506Z,63.50
2023-05-23T07:35:50.059Z,63.40
2023-05-23T07:38:16.604Z,64.00
2023-05-23T07:40:43.347Z,64.20
2023-05-23T07:43:09.970Z,63.10
2023-05-23T07:45:36.495Z,64.00
2023-05-23T07:48:03.061Z,63.10
2023-05-23T07:50:29.616Z,63.90
2023-05-23T07:52:56.132Z,63.50
2023-05-23T07:55:22.696Z,63.80
2023-05-23T07:57:49.239Z,63.20
2023-05-23T08:00:15.759Z,63.50
2023-05-23T08:02:42.335Z,63.20
2023-05-23T08:05:08.890Z,63.40
2023-05-23T08:07:35.436Z,62.80
2023-05-23T08:10:01.951Z,63.10
2023-05-23T08:12:28.521Z,63.30
2023-05-23T08:14:55.116Z,63.10
2023-05-23T08:17:21.824Z,63.10
2023-05-23T08:19:48.423Z,62.70
2023-05-23T08:22:14.950Z,63.20
2023-05-23T08:24:41.472Z,62.50
2023-05-23T08:27:08.075Z,63.10
2023-05-23T08:29:34.669Z,62.50
2023-05-23T08:32:01.238Z,62.50
2023-05-23T08:34:27.796Z,62.90
2023-05-23T08:36:54.330Z,62.90
2023-05-23T08:39:20.881Z,62.30
2023-05-23T08:41:47.520Z,63.00
2023-05-23T08:44:14.045Z,62.90
2023-05-23T08:46:40.602Z,63.00
2023-05-23T08:49:07.117Z,62.90
2023-05-23T08:51:33.638Z,62.10
2023-05-23T08:54:00.199Z,62.40
2023-05-23T08:56:27.774Z,62.10
2023-05-23T08:58:54.318Z,62.50
2023-05-23T09:01:20.939Z,62.80
2023-05-23T09:03:47.512Z,62.10
2023-05-23T09:06:14.049Z,62.80
2023-05-23T09:08:40.590Z,62.20
2023-05-23T09:11:07.156Z,62.70
2023-05-23T09:13:33.678Z,62.30
2023-05-23T09:16:00.331Z,62.60
2023-05-23T09:18:26.979Z,62.20
2023-05-23T09:20:53.515Z,62.40
2023-05-23T09:23:20.064Z,62.20
2023-05-23T09:25:46.596Z,62.20
2023-05-23T09:28:13.137Z,61.80
2023-05-23T09:30:39.862Z,62.50
2023-05-23T09:33:06.700Z,62.00
2023-05-23T09:35:33.266Z,62.40
2023-05-23T09:37:59.835Z,62.40
2023-05-23T09:40:26.488Z,62.00
2023-05-23T09:42:53.073Z,61.90
2023-05-23T09:45:19.599Z,62.00
2023-05-23T09:47:46.207Z,61.90
2023-05-23T09:50:12.744Z,61.70
2023-05-23T09:52:39.300Z,61.90
2023-05-23T09:55:05.825Z,61.70
2023-05-23T09:57:32.350Z,62.10
2023-05-23T09:59:58.992Z,61.60
2023-05-23T10:02:27.892Z,61.60
2023-05-23T10:04:54.409Z,62.10
2023-05-23T10:07:20.931Z,61.60
2023-05-23T10:09:47.472Z,61.80
2023-05-23T10:12:14.009Z,61.50
2023-05-23T10:14:40.574Z,61.60
2023-05-23T10:17:07.165Z,61.40
2023-05-23T10:19:33.912Z,61.80
2023-05-23T10:22:00.554Z,61.30
2023-05-23T10:24:27.123Z,61.70
2023-05-23T10:26:53.640Z,61.70
2023-05-23T10:29:20.195Z,61.40
2023-05-23T10:31:46.781Z,61.60
2023-05-23T10:34:13.377Z,61.20
2023-05-23T10:36:39.895Z,61.60
2023-05-23T10:39:06.434Z,61.00
2023-05-23T10:41:32.941Z,60.90
2023-05-23T10:43:59.494Z,61.30
2023-05-23T10:46:26.195Z,61.00
2023-05-23T10:48:52.768Z,61.30
2023-05-23T10:51:19.297Z,61.30
2023-05-23T10:53:45.845Z,61.20
2023-05-23T10:56:12.364Z,61.00
2023-05-23T10:58:38.903Z,60.80
2023-05-23T11:01:05.409Z,61.00
2023-05-23T11:03:32.066Z,60.60
2023-05-23T11:05:58.680Z,60.80
2023-05-23T11:08:32.397Z,60.90
2023-05-23T11:11:02.200Z,60.90
2023-05-23T11:13:28.732Z,60.80
2023-05-23T11:15:55.315Z,60.80
2023-05-23T11:18:21.853Z,60.60
2023-05-23T11:20:48.400Z,60.50
2023-05-23T11:23:14.924Z,60.70
2023-05-23T11:25:41.544Z,60.30
2023-05-23T11:28:08.056Z,60.40
2023-05-23T11:30:34.574Z,60.30
2023-05-23T11:33:01.172Z,60.20
2023-05-23T11:35:27.761Z,60.20
2023-05-23T11:37:54.299Z,60.10
2023-05-23T11:40:20.919Z,60.40
2023-05-23T11:42:47.457Z,60.10
2023-05-23T11:45:14.021Z,60.40
2023-05-23T11:47:41.010Z,60.00
2023-05-23T11:50:07.586Z,60.20
2023-05-23T11:52:34.093Z,60.00
2023-05-23T11:55:03.432Z,60.30
2023-05-23T11:57:30.506Z,60.40
2023-05-23T11:59:57.090Z,60.10
2023-05-23T12:02:23.706Z,59.80
2023-05-23T12:04:50.367Z,60.20
2023-05-23T12:07:16.980Z,59.90
2023-05-23T12:09:43.492Z,60.00
2023-05-23T12:12:10.037Z,59.90
2023-05-23T12:14:36.623Z,59.70
2023-05-23T12:17:03.230Z,60.20
2023-05-23T12:19:29.906Z,59.80
2023-05-23T12:21:56.467Z,60.40
2023-05-23T12:24:22.983Z,60.30
2023-05-23T12:26:49.499Z,59.90
2023-05-23T12:29:16.053Z,60.20
2023-05-23T12:31:42.666Z,59.80
2023-05-23T12:34:09.223Z,59.80
2023-05-23T12:36:41.921Z,60.20
2023-05-23T12:39:14.833Z,59.60
2023-05-23T12:41:41.397Z,60.30
2023-05-23T12:44:07.902Z,59.60
2023-05-23T12:46:34.458Z,59.70
2023-05-23T12:49:00.989Z,60.00
2023-05-23T12:51:27.547Z,60.20
2023-05-23T12:53:54.083Z,59.50
2023-05-23T12:56:20.656Z,60.40
2023-05-23T12:58:47.269Z,59.70
2023-05-23T13:01:13.862Z,59.90
2023-05-23T13:03:40.535Z,59.70
2023-05-23T13:06:07.100Z,60.40
2023-05-23T13:08:33.655Z,59.50
2023-05-23T13:11:00.213Z,59.80
2023-05-23T13:13:26.781Z,60.00
2023-05-23T13:15:53.409Z,59.50
2023-05-23T13:18:19.952Z,59.80
2023-05-23T13:20:46.795Z,59.40
2023-05-23T13:23:13.380Z,59.70
2023-05-23T13:25:40.183Z,60.30
2023-05-23T13:28:06.910Z,59.50
2023-05-23T13:30:33.443Z,59.60
2023-05-23T13:32:59.967Z,59.90
2023-05-23T13:35:26.505Z,59.70
2023-05-23T13:37:53.111Z,59.90
2023-05-23T13:40:19.640Z,59.80
2023-05-23T13:42:46.182Z,59.20
2023-05-23T13:45:12.721Z,59.60
2023-05-23T13:47:39.298Z,59.50
2023-05-23T13:50:05.831Z,59.60
2023-05-23T13:52:32.411Z,59.60
2023-05-23T13:54:58.922Z,59.80
2023-05-23T13:57:25.459Z,59.70
2023-05-23T13:59:51.975Z,59.30
2023-05-23T14:02:18.506Z,59.80
2023-05-23T14:04:45.074Z,59.50
2023-05-23T14:07:11.628Z,59.80
2023-05-23T14:09:38.168Z,60.10
2023-05-23T14:12:04.698Z,59.90
2023-05-23T14:14:40.229Z,59.40
2023-05-23T14:17:06.757Z,59.10
2023-05-23T14:19:33.294Z,59.40
2023-05-23T14:21:59.844Z,59.00
2023-05-23T14:24:26.392Z,59.30
2023-05-23T14:26:52.928Z,59.30
2023-05-23T14:29:19.454Z,59.00
2023-05-23T14:31:45.992Z,58.90
2023-05-23T14:34:12.570Z,59.20
2023-05-23T14:36:39.074Z,58.90
2023-05-23T14:39:05.985Z,59.00
2023-05-23T14:41:33.340Z,59.50
2023-05-23T14:43:59.953Z,59.00
2023-05-23T14:46:26.544Z,58.80
2023-05-23T14:48:53.156Z,58.50
2023-05-23T14:51:34.599Z,58.90
2023-05-23T14:54:06.242Z,58.40
2023-05-23T14:56:32.806Z,58.20
2023-05-23T14:58:59.367Z,58.50
2023-05-23T15:01:25.913Z,58.20
2023-05-23T15:03:52.550Z,58.70
2023-05-23T15:06:19.068Z,58.40
2023-05-23T15:08:45.583Z,58.00
2023-05-23T15:11:12.092Z,58.00
2023-05-23T15:13:38.611Z,58.20
2023-05-23T15:16:05.168Z,57.90
2023-05-23T15:18:39.916Z,57.70
2023-05-23T15:21:08.197Z,57.70
2023-05-23T15:23:34.705Z,57.90
2023-05-23T15:26:01.277Z,57.80
2023-05-23T15:28:27.816Z,57.60
2023-05-23T15:30:54.369Z,57.50
2023-05-23T15:33:20.923Z,57.20
2023-05-23T15:35:47.517Z,57.10
2023-05-23T15:38:15.139Z,57.00
2023-05-23T15:40:42.821Z,56.80
2023-05-23T15:43:09.588Z,57.10
2023-05-23T15:45:36.158Z,57.00
2023-05-23T15:48:02.742Z,56.90
2023-05-23T15:50:34.111Z,56.40
2023-05-23T15:53:00.632Z,56.90
2023-05-23T15:55:27.164Z,56.50
2023-05-23T15:57:53.677Z,56.30
2023-05-23T16:00:20.188Z,56.30
2023-05-23T16:02:46.744Z,56.60
2023-05-23T16:05:13.383Z,56.50
2023-05-23T16:07:39.922Z,56.20
2023-05-23T16:10:06.456Z,56.20
2023-05-23T16:12:32.989Z,56.10
2023-05-23T16:14:59.518Z,56.30
2023-05-23T16:17:26.072Z,56.10
2023-05-23T16:19:52.638Z,56.00
2023-05-23T16:22:19.143Z,55.90
2023-05-23T16:24:45.692Z,55.90
2023-05-23T16:27:12.190Z,56.70
2023-05-23T16:29:38.713Z,56.50
2023-05-23T16:32:05.371Z,56.50
2023-05-23T16:34:31.945Z,56.70
2023-05-23T16:36:58.501Z,56.60
2023-05-23T16:39:25.029Z,56.60
2023-05-23T16:41:51.563Z,56.70
2023-05-23T16:44:18.165Z,56.70
2023-05-23T16:46:44.825Z,56.50
2023-05-23T16:49:11.411Z,55.70
2023-05-23T16:51:37.955Z,55.80
2023-05-23T16:54:04.464Z,56.10
2023-05-23T16:56:30.998Z,55.80
2023-05-23T16:58:58.122Z,55.70
2023-05-23T17:01:24.694Z,55.80
2023-05-23T17:03:51.355Z,56.10
2023-05-23T17:06:17.957Z,55.20
2023-05-23T17:08:44.485Z,55.50
2023-05-23T17:11:11.022Z,55.40
2023-05-23T17:13:37.558Z,55.30
2023-05-23T17:16:04.157Z,55.30
2023-05-23T17:18:30.718Z,55.20
2023-05-23T17:20:57.369Z,55.40
2023-05-23T17:23:23.897Z,54.90
2023-05-23T17:25:50.446Z,55.00
2023-05-23T17:28:16.948Z,55.00
2023-05-23T17:30:43.491Z,54.50
2023-05-23T17:33:10.036Z,54.80
2023-05-23T17:35:36.614Z,54.90
2023-05-23T17:38:03.134Z,54.50
2023-05-23T17:40:34.295Z,54.60
2023-05-23T17:43:00.837Z,54.70
2023-05-23T17:45:27.390Z,54.90
2023-05-23T17:47:53.981Z,54.50
2023-05-23T17:50:20.525Z,54.60
2023-05-23T17:52:47.063Z,54.50
2023-05-23T17:55:13.594Z,55.20
2023-05-23T17:57:40.228Z,54.50
2023-05-23T18:00:06.764Z,55.60
2023-05-23T18:02:33.354Z,54.70
2023-05-23T18:04:59.875Z,55.20
2023-05-23T18:07:26.440Z,55.10
2023-05-23T18:09:52.961Z,55.30
2023-05-23T18:12:19.501Z,55.00
2023-05-23T18:14:46.046Z,55.10
2023-05-23T18:17:12.618Z,55.50
2023-05-23T18:19:39.194Z,55.80
2023-05-23T18:22:05.798Z,55.40
2023-05-23T18:24:32.328Z,55.60
2023-05-23T18:26:58.890Z,55.80
2023-05-23T18:29:25.421Z,56.00
2023-05-23T18:31:51.957Z,55.90
2023-05-23T18:34:18.485Z,56.10
2023-05-23T18:36:45.014Z,55.80
2023-05-23T18:39:11.541Z,55.70
2023-05-23T18:41:38.094Z,55.40
2023-05-23T18:44:04.621Z,55.20
2023-05-23T18:46:31.194Z,55.20
2023-05-23T18:48:57.737Z,55.00
2023-05-23T18:51:24.291Z,54.90
2023-05-23T18:53:50.809Z,55.40
2023-05-23T18:56:17.334Z,54.70
2023-05-23T18:58:45.411Z,54.60
2023-05-23T19:01:13.340Z,54.80
2023-05-23T19:03:39.925Z,54.40
2023-05-23T19:06:06.552Z,54.50
2023-05-23T19:08:33.095Z,54.50
2023-05-23T19:10:59.623Z,54.60
2023-05-23T19:13:26.170Z,54.60
2023-05-23T19:15:52.723Z,54.50
2023-05-23T19:18:19.271Z,55.00
2023-05-23T19:20:45.789Z,54.90
2023-05-23T19:23:12.342Z,54.50
2023-05-23T19:25:40.240Z,54.70
2023-05-23T19:28:06.782Z,54.40
2023-05-23T19:30:33.297Z,54.50
2023-05-23T19:32:59.861Z,54.50
2023-05-23T19:35:26.522Z,55.00
2023-05-23T19:37:53.106Z,54.20
2023-05-23T19:40:19.620Z,54.20
2023-05-23T19:42:46.168Z,54.30
2023-05-23T19:45:12.687Z,54.30
2023-05-23T19:47:39.261Z,54.10
2023-05-23T19:50:05.809Z,54.10
2023-05-23T19:52:32.383Z,54.40
2023-05-23T19:55:00.059Z,53.90
2023-05-23T19:57:27.757Z,54.10
2023-05-23T19:59:54.294Z,53.70
2023-05-23T20:02:20.914Z,53.90
2023-05-23T20:04:47.569Z,53.90
2023-05-23T20:07:14.103Z,53.70
2023-05-23T20:09:40.615Z,53.80
2023-05-23T20:12:07.140Z,53.70
2023-05-23T20:14:33.665Z,53.60
2023-05-23T20:17:00.175Z,53.40
2023-05-23T20:19:26.739Z,53.40
2023-05-23T20:21:53.516Z,53.50
2023-05-23T20:24:20.090Z,53.50
2023-05-23T20:26:46.623Z,53.70
2023-05-23T20:29:13.157Z,53.40
2023-05-23T20:31:39.742Z,53.20
2023-05-23T20:34:06.276Z,53.20
2023-05-23T20:36:32.830Z,53.40
2023-05-23T20:39:04.361Z,53.00
2023-05-23T20:41:30.902Z,52.80
2023-05-23T20:43:57.456Z,52.80
2023-05-23T20:46:24.025Z,52.90
2023-05-23T20:48:50.590Z,52.70
2023-05-23T20:51:17.102Z,52.60
2023-05-23T20:53:46.366Z,52.60
2023-05-23T20:56:12.899Z,52.60
2023-05-23T20:58:39.403Z,52.60
2023-05-23T21:01:05.954Z,52.40
2023-05-23T21:03:32.588Z,52.40
2023-05-23T21:05:59.130Z,52.30
2023-05-23T21:08:28.376Z,52.20
2023-05-23T21:10:55.251Z,52.10
2023-05-23T21:13:21.901Z,52.00
2023-05-23T21:15:48.406Z,52.00
2023-05-23T21:18:14.937Z,51.70
2023-05-23T21:20:41.723Z,51.60
2023-05-23T21:23:10.399Z,51.60
2023-05-23T21:25:36.948Z,51.50
2023-05-23T21:28:04.382Z,51.40
2023-05-23T21:30:30.973Z,51.30
2023-05-23T21:32:57.607Z,51.40
2023-05-23T21:35:24.159Z,51.20
2023-05-23T21:37:50.650Z,51.10
2023-05-23T21:40:17.166Z,50.90
2023-05-23T21:42:43.673Z,51.00
2023-05-23T21:45:10.226Z,50.90
2023-05-23T21:47:36.788Z,50.80
2023-05-23T21:50:03.368Z,50.70
2023-05-23T21:52:29.887Z,50.60
2023-05-23T21:54:56.407Z,50.80
2023-05-23T21:57:22.923Z,50.40
2023-05-23T21:59:49.482Z,50.40
2023-05-23T22:02:16.018Z,50.60
2023-05-23T22:04:42.561Z,50.40
2023-05-23T22:07:09.089Z,50.40
2023-05-23T22:09:35.637Z,50.30
2023-05-23T22:12:02.175Z,50.20
2023-05-23T22:14:28.691Z,50.00
2023-05-23T22:16:55.192Z,50.20
2023-05-23T22:19:21.735Z,50.20
2023-05-23T22:21:48.262Z,50.00
2023-05-23T22:24:14.781Z,49.90
2023-05-23T22:26:41.328Z,50.10
2023-05-23T22:29:07.870Z,49.90
2023-05-23T22:31:34.467Z,49.80
2023-05-23T22:34:01.037Z,49.70
2023-05-23T22:36:27.599Z,49.60
2023-05-23T22:38:54.103Z,49.70
2023-05-23T22:41:20.642Z,49.70
2023-05-23T22:43:47.259Z,49.50
2023-05-23T22:46:13.908Z,49.50
2023-05-23T22:48:40.445Z,49.40
2023-05-23T22:51:06.998Z,49.40
2023-05-23T22:53:33.528Z,49.40
2023-05-23T22:56:00.061Z,49.60
2023-05-23T22:58:26.580Z,49.40
2023-05-23T23:00:53.127Z,49.50
2023-05-23T23:03:19.728Z,49.30
2023-05-23T23:05:46.513Z,49.40
2023-05-23T23:08:13.032Z,49.30
2023-05-23T23:10:40.850Z,49.20
2023-05-23T23:13:07.451Z,49.20
2023-05-23T23:15:34.482Z,49.30
2023-05-23T23:18:01.140Z,49.20
2023-05-23T23:20:27.882Z,49.20
2023-05-23T23:22:54.527Z,49.10
2023-05-23T23:25:21.035Z,49.10
2023-05-23T23:27:47.568Z,49.00
2023-05-23T23:30:14.103Z,48.90
2023-05-23T23:32:40.744Z,49.00
2023-05-23T23:35:07.426Z,49.00
2023-05-23T23:37:33.990Z,49.00
2023-05-23T23:40:00.487Z,48.90
2023-05-23T23:42:26.996Z,48.90
2023-05-23T23:44:53.508Z,48.80
2023-05-23T23:47:20.023Z,48.60
2023-05-23T23:49:46.561Z,48.80
2023-05-23T23:52:13.247Z,48.80
2023-05-23T23:54:39.784Z,48.50
2023-05-23T23:57:06.328Z,48.70
2023-05-23T23:59:32.849Z,48.50
